Main page
METAR-TAF:

METAR-TAF

Airports :

RAF Barkston Heath

Barkston Heath, England

latitude: 52-58N, longitude: 000-34W, elevation: 112 m

Current weather observation

The report was made 50 minutes ago, at 01:50 UTC
Wind 8 kt from the South/Southwest
Temperature 9°C
Humidity 93%
Pressure 1016 hPa

METAR: EGYE 210150Z AUTO 21008KT //// OVC008/// 09/08 Q1016

Time: 02:40 (02:40 UTC)

Forecast

The report was made 12 hours and 52 minutes ago, at 13:48 UTC
Forecast valid from 20 at 15 UTC to 20 at 19 UTC
Wind 18 kt from the Southwest with gusts up to 28 kt
Visibility 10 km or more
Few clouds at a height of 1800 ft
Probability 40% :
Temporary
from 20 at 15 UTC to 20 at 19 UTC
Scattered clouds at a height of 1800 ft
Probability 30% :
Temporary
from 20 at 17 UTC to 20 at 19 UTC
Visibility: 6000 m
Scattered clouds at a height of 800 ft
rain,

TAF: EGYE 201348Z 2015/2019 23018G28KT 9999 FEW018 PROB40 TEMPO 2015/2019 SCT018 PROB30 TEMPO 2017/2019 6000 RA SCT008

Weather observations and forecasts of more than 4000 airports (METAR and TAF reports).

The available stations are represented by yellow and red dots on the map.

Hover mouse over dot to see the name of the station.

Then click to see weather observations and forecasts.

To change the map : click on the green buttons with a black cross to zoom in, on the green button with a dash to zoom out, or on the green arrows for adjacent maps.


METAR-TAF: